Time;durP1;ratioP1;P1;durP2;ratioP2;P2;SDS_P1;SDS_P2;PMS_P1;PMS_P2;Temp;Humidity;BMP_temperature;BMP_pressure;BME280_temperature;BME280_humidity;BME280_pressure;Samples;Min_cycle;Max_cycle;Signal;HPM_P1;HPM_P2
2022/10/13 00:01:11;;;;;;;13.55;5.85;;;13.40;99.90;;;;;;5089923;28;20028;-34
2022/10/13 00:03:38;;;;;;;14.27;5.50;;;13.40;99.90;;;;;;5080762;28;20024;-32
2022/10/13 00:06:06;;;;;;;18.10;5.97;;;13.40;99.90;;;;;;5074650;28;20025;-35
2022/10/13 00:08:32;;;;;;;;;;;13.40;99.90;;;;;;5077057;28;20104;-60
2022/10/13 00:10:59;;;;;;;20.40;6.28;;;13.50;99.90;;;;;;5073546;28;20388;-31
2022/10/13 00:13:26;;;;;;;14.60;5.60;;;13.50;99.90;;;;;;5091552;28;20031;-34
2022/10/13 00:15:51;;;;;;;14.15;6.32;;;13.50;99.90;;;;;;5090865;28;20028;-39
2022/10/13 00:18:17;;;;;;;16.38;6.75;;;13.50;99.90;;;;;;5085911;28;20783;-34
2022/10/13 00:20:49;;;;;;;7.82;5.57;;;13.50;99.90;;;;;;5086938;28;20046;-32
2022/10/13 00:23:17;;;;;;;12.65;5.50;;;13.60;99.90;;;;;;5074103;28;20390;-33
2022/10/13 00:25:46;;;;;;;9.73;6.03;;;13.60;99.90;;;;;;5090808;28;20426;-37
2022/10/13 00:28:13;;;;;;;15.05;5.68;;;13.60;99.90;;;;;;5088353;28;20028;-34
2022/10/13 00:30:39;;;;;;;10.85;5.85;;;13.60;99.90;;;;;;5076111;28;20111;-33
2022/10/13 00:33:05;;;;;;;13.18;5.88;;;13.60;99.90;;;;;;5077791;28;20028;-38
2022/10/13 00:35:31;;;;;;;10.95;5.03;;;13.70;99.90;;;;;;5077954;28;20506;-34
2022/10/13 00:37:57;;;;;;;15.75;6.03;;;13.70;99.90;;;;;;5088864;28;20040;-37
2022/10/13 00:40:22;;;;;;;14.10;6.72;;;13.70;99.90;;;;;;5072269;28;20047;-32
2022/10/13 00:42:48;;;;;;;14.60;5.97;;;13.80;99.90;;;;;;5077074;28;20060;-33
2022/10/13 00:45:16;;;;;;;10.00;5.88;;;13.80;99.90;;;;;;5087293;28;20448;-31
2022/10/13 00:47:46;;;;;;;16.63;5.38;;;13.80;99.90;;;;;;5075347;28;20025;-37
2022/10/13 00:50:16;;;;;;;16.30;6.63;;;13.80;99.90;;;;;;5072561;28;20472;-34
2022/10/13 00:52:42;;;;;;;19.45;6.65;;;13.80;99.90;;;;;;5061014;28;20321;-35
2022/10/13 00:55:11;;;;;;;10.98;5.45;;;13.80;99.90;;;;;;5092121;28;20524;-34
2022/10/13 00:57:40;;;;;;;11.88;5.57;;;13.90;99.90;;;;;;5078735;28;20028;-36
2022/10/13 01:00:07;;;;;;;9.05;5.18;;;13.80;99.90;;;;;;5087627;28;20024;-43
2022/10/13 01:02:36;;;;;;;17.60;7.25;;;13.80;99.90;;;;;;5084837;28;20048;-38
2022/10/13 01:05:04;;;;;;;10.85;6.03;;;13.90;99.90;;;;;;5076950;28;20469;-33
2022/10/13 01:07:30;;;;;;;11.23;5.85;;;13.80;99.90;;;;;;5076548;28;20028;-33
2022/10/13 01:09:56;;;;;;;15.18;6.85;;;13.90;99.90;;;;;;5088460;28;20078;-40
2022/10/13 01:12:31;;;;;;;18.23;6.00;;;13.80;99.90;;;;;;5094049;28;20539;-42
2022/10/13 01:15:52;;;;;;;15.15;5.88;;;13.80;99.90;;;;;;5085965;28;20492;-42
2022/10/13 01:18:48;;;;;;;12.55;5.40;;;13.80;99.90;;;;;;4994775;28;20368;-40
2022/10/13 01:21:45;;;;;;;10.85;6.10;;;13.80;99.90;;;;;;5084246;28;20527;-42
2022/10/13 01:24:27;;;;;;;16.90;5.93;;;13.80;99.90;;;;;;5086083;28;20112;-40
2022/10/13 01:27:28;;;;;;;14.50;5.93;;;13.80;99.90;;;;;;5094245;28;20082;-36
2022/10/13 01:30:07;;;;;;;8.50;5.07;;;13.70;99.90;;;;;;5068314;28;20431;-41
2022/10/13 01:32:36;;;;;;;11.43;5.97;;;13.70;99.90;;;;;;5092818;28;20024;-41
2022/10/13 01:35:18;;;;;;;11.43;6.32;;;13.80;99.90;;;;;;5072576;28;20064;-39
2022/10/13 01:37:54;;;;;;;12.68;6.88;;;13.80;99.90;;;;;;5082441;28;20051;-40
2022/10/13 01:40:31;;;;;;;11.48;6.18;;;13.80;99.90;;;;;;5095352;28;20032;-41
2022/10/13 01:43:09;;;;;;;10.70;6.33;;;13.80;99.90;;;;;;5086207;28;20024;-39
2022/10/13 01:45:43;;;;;;;10.77;6.25;;;13.70;99.90;;;;;;5085823;28;20025;-35
2022/10/13 01:48:09;;;;;;;11.45;6.50;;;13.70;99.90;;;;;;5094825;28;20095;-33
2022/10/13 01:50:36;;;;;;;16.27;6.40;;;13.70;99.90;;;;;;5093407;28;20056;-33
2022/10/13 01:53:04;;;;;;;13.77;6.57;;;13.80;99.90;;;;;;5085415;28;20488;-41
2022/10/13 01:55:30;;;;;;;10.98;5.80;;;13.80;99.90;;;;;;5078643;28;20025;-40
2022/10/13 01:57:56;;;;;;;14.77;5.65;;;13.70;99.90;;;;;;5066836;28;20109;-43
2022/10/13 02:00:22;;;;;;;10.82;6.47;;;13.80;99.90;;;;;;5076083;28;20024;-42
2022/10/13 02:03:04;;;;;;;11.55;6.38;;;13.80;99.90;;;;;;5073986;28;20040;-40
2022/10/13 02:05:48;;;;;;;18.38;6.72;;;13.80;99.90;;;;;;5078390;28;20031;-32
2022/10/13 02:08:34;;;;;;;12.57;5.65;;;13.80;99.90;;;;;;5083391;28;20029;-32
2022/10/13 02:11:05;;;;;;;11.73;6.63;;;13.80;99.90;;;;;;5089300;28;20392;-44
2022/10/13 02:13:36;;;;;;;17.25;5.93;;;13.80;99.90;;;;;;5080790;28;20028;-45
2022/10/13 02:16:02;;;;;;;11.32;6.38;;;13.80;99.90;;;;;;5065650;28;20032;-41
2022/10/13 02:18:33;;;;;;;8.85;6.00;;;13.80;99.90;;;;;;5082583;28;20020;-41
2022/10/13 02:21:00;;;;;;;16.98;6.65;;;13.70;99.90;;;;;;5091550;28;20043;-40
2022/10/13 02:23:27;;;;;;;16.10;6.87;;;13.70;99.90;;;;;;5073883;28;20024;-39
2022/10/13 02:25:54;;;;;;;16.63;6.40;;;13.70;99.90;;;;;;5088346;28;20032;-45
2022/10/13 02:28:20;;;;;;;12.88;6.25;;;13.70;99.90;;;;;;5083129;28;20151;-41
2022/10/13 02:30:46;;;;;;;20.70;7.38;;;13.60;99.90;;;;;;5080560;28;20150;-40
2022/10/13 02:33:13;;;;;;;14.27;6.05;;;13.60;99.90;;;;;;5090259;28;20074;-56
2022/10/13 02:35:39;;;;;;;10.53;6.20;;;13.60;99.90;;;;;;5095287;28;20020;-40
2022/10/13 02:38:05;;;;;;;14.70;7.53;;;13.60;99.90;;;;;;5093200;28;20343;-39
2022/10/13 02:40:31;;;;;;;15.70;6.78;;;13.70;99.90;;;;;;5093316;28;20025;-40
2022/10/13 02:42:57;;;;;;;12.40;6.18;;;13.70;99.90;;;;;;5087180;28;20040;-45
2022/10/13 02:45:22;;;;;;;11.07;6.13;;;13.60;99.90;;;;;;5084603;28;20480;-46
2022/10/13 02:47:48;;;;;;;12.70;6.40;;;13.60;99.90;;;;;;5082845;28;20448;-39
2022/10/13 02:50:13;;;;;;;10.73;6.35;;;13.50;99.90;;;;;;5077118;28;20485;-42
2022/10/13 02:52:39;;;;;;;17.23;6.07;;;13.60;99.90;;;;;;5081913;28;20028;-42
2022/10/13 02:55:06;;;;;;;11.05;6.22;;;13.60;99.90;;;;;;5078573;28;20063;-41
2022/10/13 02:57:32;;;;;;;10.63;6.38;;;13.60;99.90;;;;;;5074122;28;20357;-34
2022/10/13 02:59:57;;;;;;;13.82;6.57;;;13.60;99.90;;;;;;5075357;28;20054;-37
2022/10/13 03:02:24;;;;;;;17.90;5.97;;;13.60;99.90;;;;;;5092366;28;20035;-42
2022/10/13 03:04:50;;;;;;;12.07;5.80;;;13.60;99.90;;;;;;5088956;28;20020;-41
2022/10/13 03:07:16;;;;;;;10.02;6.38;;;13.60;99.90;;;;;;5093506;28;20571;-40
2022/10/13 03:09:41;;;;;;;13.13;5.88;;;13.60;99.90;;;;;;5092614;28;20103;-38
2022/10/13 03:12:07;;;;;;;16.92;6.32;;;13.60;99.90;;;;;;5091323;28;20476;-33
2022/10/13 03:14:33;;;;;;;12.18;6.35;;;13.60;99.90;;;;;;5076412;28;20028;-52
2022/10/13 03:16:58;;;;;;;12.77;6.45;;;13.60;99.90;;;;;;5077124;28;20063;-37
2022/10/13 03:19:24;;;;;;;13.57;6.60;;;13.60;99.90;;;;;;5086555;28;20480;-37
2022/10/13 03:21:49;;;;;;;12.75;6.00;;;13.60;99.90;;;;;;5089038;28;20388;-32
2022/10/13 03:24:15;;;;;;;11.65;4.88;;;13.60;99.90;;;;;;5090771;28;20026;-35
2022/10/13 03:26:41;;;;;;;12.15;6.32;;;13.60;99.90;;;;;;5093266;28;20392;-36
2022/10/13 03:29:06;;;;;;;11.27;6.75;;;13.60;99.90;;;;;;5088970;28;20035;-34
2022/10/13 03:31:32;;;;;;;18.17;6.55;;;13.70;99.90;;;;;;5093163;28;20035;-37
2022/10/13 03:33:57;;;;;;;11.55;5.47;;;13.60;99.90;;;;;;5077519;28;20509;-31
2022/10/13 03:36:23;;;;;;;14.00;6.15;;;13.60;99.90;;;;;;5077899;28;20040;-32
2022/10/13 03:38:49;;;;;;;13.07;5.88;;;13.60;99.90;;;;;;5084411;28;20032;-42
2022/10/13 03:41:16;;;;;;;7.50;5.25;;;13.60;99.90;;;;;;5092664;28;20032;-40
2022/10/13 03:43:43;;;;;;;14.38;6.25;;;13.70;99.90;;;;;;5074396;28;20082;-43
2022/10/13 03:46:13;;;;;;;11.68;5.95;;;13.70;99.90;;;;;;5087829;28;20073;-49
2022/10/13 03:48:39;;;;;;;12.98;5.78;;;13.70;99.90;;;;;;5088118;28;20460;-41
2022/10/13 03:51:07;;;;;;;15.40;6.22;;;13.70;99.90;;;;;;5088786;28;20023;-41
2022/10/13 03:53:33;;;;;;;16.25;6.18;;;13.80;99.90;;;;;;5082901;28;20027;-40
2022/10/13 03:55:58;;;;;;;14.13;7.07;;;13.80;99.90;;;;;;5079399;28;20020;-58
2022/10/13 03:58:27;;;;;;;13.07;6.28;;;13.90;99.90;;;;;;5083463;28;20142;-42
2022/10/13 04:00:52;;;;;;;14.32;6.28;;;13.80;99.90;;;;;;5092290;28;20028;-43
2022/10/13 04:03:18;;;;;;;15.20;6.65;;;13.80;99.90;;;;;;5090928;28;20099;-41
2022/10/13 04:05:44;;;;;;;11.18;6.00;;;13.80;99.90;;;;;;5091150;28;20394;-35
2022/10/13 04:08:11;;;;;;;12.13;5.50;;;13.80;99.90;;;;;;5074958;28;20566;-36
2022/10/13 04:10:36;;;;;;;9.00;5.15;;;13.80;99.90;;;;;;5054670;28;20436;-33
2022/10/13 04:13:02;;;;;;;11.60;6.72;;;13.80;99.90;;;;;;5086239;28;20113;-34
2022/10/13 04:15:28;;;;;;;13.98;6.65;;;13.80;99.90;;;;;;5093242;28;20031;-33
2022/10/13 04:17:53;;;;;;;11.85;6.47;;;13.80;99.90;;;;;;5090369;28;20028;-43
2022/10/13 04:20:19;;;;;;;10.52;5.70;;;13.80;99.90;;;;;;5086001;28;20038;-42
2022/10/13 04:22:45;;;;;;;11.63;5.55;;;13.80;99.90;;;;;;5077572;28;20103;-38
2022/10/13 04:25:10;;;;;;;9.98;5.88;;;13.70;99.90;;;;;;5072458;28;20515;-35
2022/10/13 04:27:38;;;;;;;15.23;6.88;;;13.70;99.90;;;;;;5074832;28;20024;-38
2022/10/13 04:30:05;;;;;;;13.15;6.70;;;13.70;99.90;;;;;;5091923;28;20028;-34
2022/10/13 04:32:31;;;;;;;12.75;5.95;;;13.70;99.90;;;;;;5092164;28;20085;-33
2022/10/13 04:34:57;;;;;;;16.95;6.20;;;13.70;99.90;;;;;;5087121;28;20035;-31
2022/10/13 04:37:23;;;;;;;16.92;6.45;;;13.70;99.90;;;;;;5085824;28;20392;-56
2022/10/13 04:39:48;;;;;;;18.17;6.53;;;13.70;99.90;;;;;;5080711;28;20465;-45
2022/10/13 04:42:14;;;;;;;19.00;6.90;;;13.60;99.90;;;;;;5090313;28;20085;-31
2022/10/13 04:44:40;;;;;;;11.32;6.50;;;13.60;99.90;;;;;;5090452;28;20515;-31
2022/10/13 04:47:05;;;;;;;10.98;6.45;;;13.70;99.90;;;;;;5079808;28;20025;-34
2022/10/13 04:49:31;;;;;;;14.98;6.90;;;13.70;99.90;;;;;;5092054;28;20039;-39
2022/10/13 04:51:57;;;;;;;10.77;6.30;;;13.70;99.90;;;;;;5095346;28;20495;-35
2022/10/13 04:54:23;;;;;;;12.25;6.60;;;13.70;99.90;;;;;;5096577;28;20028;-38
2022/10/13 04:56:48;;;;;;;19.33;6.90;;;13.70;99.90;;;;;;5091988;28;20560;-34
2022/10/13 04:59:14;;;;;;;20.27;6.30;;;13.70;99.90;;;;;;5097602;28;20369;-32
2022/10/13 05:01:40;;;;;;;11.07;6.68;;;13.70;99.90;;;;;;5098898;28;20028;-31
2022/10/13 05:04:07;;;;;;;11.88;5.85;;;13.70;99.90;;;;;;5098729;28;20449;-37
2022/10/13 05:06:34;;;;;;;13.85;6.55;;;13.70;99.90;;;;;;5080289;28;20060;-34
2022/10/13 05:09:00;;;;;;;13.68;6.05;;;13.70;99.90;;;;;;5094105;28;20031;-34
2022/10/13 05:11:27;;;;;;;9.43;6.25;;;13.70;99.90;;;;;;5096410;28;20073;-32
2022/10/13 05:13:54;;;;;;;19.33;6.95;;;13.80;99.90;;;;;;5099298;28;20028;-32
2022/10/13 05:16:21;;;;;;;17.80;6.45;;;13.80;99.90;;;;;;5085384;28;20032;-34
2022/10/13 05:18:47;;;;;;;17.35;7.28;;;13.80;99.90;;;;;;5092935;28;20111;-52
2022/10/13 05:21:18;;;;;;;11.57;6.30;;;13.80;99.90;;;;;;5097450;28;20117;-35
2022/10/13 05:23:45;;;;;;;17.20;6.88;;;13.80;99.90;;;;;;5092807;28;20021;-40
2022/10/13 05:26:13;;;;;;;18.87;7.87;;;13.80;99.90;;;;;;5090998;28;20016;-42
2022/10/13 05:28:39;;;;;;;15.43;7.28;;;13.80;99.90;;;;;;5080614;28;20187;-44
2022/10/13 05:31:18;;;;;;;15.80;7.05;;;13.80;99.90;;;;;;5084218;28;20032;-42
2022/10/13 05:33:45;;;;;;;19.20;7.13;;;13.70;99.90;;;;;;5082178;28;20032;-42
2022/10/13 05:36:14;;;;;;;21.25;7.65;;;13.70;99.90;;;;;;5096199;28;20028;-43
2022/10/13 05:39:03;;;;;;;13.20;6.63;;;13.70;99.90;;;;;;5096025;28;20589;-45
2022/10/13 05:41:30;;;;;;;14.15;6.85;;;13.60;99.90;;;;;;5083358;28;20086;-42
2022/10/13 05:44:00;;;;;;;15.23;7.78;;;13.60;99.90;;;;;;5097599;28;20031;-49
2022/10/13 05:46:26;;;;;;;13.95;6.88;;;13.60;99.90;;;;;;5093926;28;20024;-45
2022/10/13 05:48:52;;;;;;;14.02;6.53;;;13.70;99.90;;;;;;5097632;28;20031;-43
2022/10/13 05:51:27;;;;;;;18.38;6.55;;;13.70;99.90;;;;;;5094478;28;20040;-45
2022/10/13 05:54:01;;;;;;;17.27;7.35;;;13.70;99.90;;;;;;5091455;28;20020;-62
2022/10/13 05:56:33;;;;;;;14.95;6.88;;;13.70;99.90;;;;;;5095564;28;20456;-43
2022/10/13 05:59:03;;;;;;;11.90;6.07;;;13.70;99.90;;;;;;5089916;28;20060;-45
2022/10/13 06:01:31;;;;;;;17.15;6.80;;;13.70;99.90;;;;;;5090572;28;20028;-42
2022/10/13 06:04:02;;;;;;;19.80;7.63;;;13.70;99.90;;;;;;5087851;28;20020;-41
2022/10/13 06:06:28;;;;;;;14.82;6.95;;;13.70;99.90;;;;;;5071630;28;20539;-48
2022/10/13 06:08:53;;;;;;;15.35;6.82;;;13.70;99.90;;;;;;5059194;28;20107;-34
2022/10/13 06:11:19;;;;;;;17.48;6.65;;;13.70;99.90;;;;;;5082255;28;20024;-40
2022/10/13 06:13:45;;;;;;;16.55;6.10;;;13.70;99.90;;;;;;5084522;28;20024;-42
2022/10/13 06:16:10;;;;;;;18.65;7.00;;;13.70;99.90;;;;;;5083024;28;20028;-41
2022/10/13 06:18:36;;;;;;;15.02;6.45;;;13.70;99.90;;;;;;5078554;28;20048;-43
2022/10/13 06:21:01;;;;;;;15.82;6.90;;;13.60;99.90;;;;;;5075313;28;20503;-41
2022/10/13 06:23:27;;;;;;;12.32;6.28;;;13.60;99.90;;;;;;5082651;28;20024;-42
2022/10/13 06:25:53;;;;;;;24.50;8.18;;;13.60;99.90;;;;;;5067677;28;20025;-40
2022/10/13 06:28:19;;;;;;;16.98;7.30;;;13.60;99.90;;;;;;5074866;28;20024;-38
2022/10/13 06:30:53;;;;;;;19.50;7.40;;;13.60;99.90;;;;;;5076069;28;20039;-41
2022/10/13 06:33:20;;;;;;;21.67;7.55;;;13.60;99.90;;;;;;5078294;28;20464;-40
2022/10/13 06:35:45;;;;;;;20.75;8.93;;;13.60;99.90;;;;;;5085907;28;20452;-40
2022/10/13 06:38:11;;;;;;;15.52;7.50;;;13.60;99.90;;;;;;5094893;28;20127;-39
2022/10/13 06:40:37;;;;;;;13.40;7.28;;;13.60;99.90;;;;;;5090755;28;20028;-39
2022/10/13 06:43:03;;;;;;;16.35;7.65;;;13.60;99.90;;;;;;5086233;28;20530;-39
2022/10/13 06:45:29;;;;;;;16.75;7.22;;;13.70;99.90;;;;;;5093448;28;20024;-40
2022/10/13 06:47:55;;;;;;;14.70;7.43;;;13.70;99.90;;;;;;5084504;28;20023;-41
2022/10/13 06:50:23;;;;;;;14.85;7.53;;;13.70;99.90;;;;;;5086788;28;20028;-38
2022/10/13 06:52:49;;;;;;;15.82;7.25;;;13.70;99.90;;;;;;5093150;28;20464;-35
2022/10/13 06:55:14;;;;;;;18.38;8.05;;;13.70;99.90;;;;;;5074497;28;20028;-40
2022/10/13 06:57:40;;;;;;;19.58;8.93;;;13.70;99.90;;;;;;5074322;28;20033;-47
2022/10/13 07:00:07;;;;;;;16.58;8.52;;;13.80;99.90;;;;;;5083327;28;20028;-42
2022/10/13 07:02:32;;;;;;;24.77;9.27;;;13.80;99.90;;;;;;5087193;28;20551;-43
2022/10/13 07:04:58;;;;;;;15.63;7.80;;;13.80;99.90;;;;;;5079560;28;20115;-35
2022/10/13 07:07:23;;;;;;;24.20;9.20;;;13.80;99.90;;;;;;5094026;28;20021;-39
2022/10/13 07:09:49;;;;;;;28.08;9.38;;;13.80;99.90;;;;;;5093623;28;20036;-41
2022/10/13 07:12:15;;;;;;;22.23;9.73;;;13.80;99.90;;;;;;5094139;28;20028;-39
2022/10/13 07:14:41;;;;;;;31.33;9.90;;;13.80;99.90;;;;;;5075889;28;20107;-42
2022/10/13 07:17:06;;;;;;;18.83;10.40;;;13.90;99.90;;;;;;5094225;28;20024;-39
2022/10/13 07:19:32;;;;;;;19.42;9.80;;;13.80;99.90;;;;;;5094135;28;20142;-39
2022/10/13 07:21:58;;;;;;;18.27;9.93;;;13.90;99.90;;;;;;5094435;28;20052;-41
2022/10/13 07:24:24;;;;;;;15.73;8.80;;;13.90;99.90;;;;;;5074368;28;20040;-40
2022/10/13 07:26:49;;;;;;;18.33;9.60;;;13.90;99.90;;;;;;5094315;28;20476;-40
2022/10/13 07:29:16;;;;;;;20.75;9.85;;;13.90;99.90;;;;;;5094041;28;20043;-37
2022/10/13 07:31:43;;;;;;;23.60;10.73;;;14.00;99.90;;;;;;5093938;28;20038;-41
2022/10/13 07:34:09;;;;;;;22.45;9.90;;;14.00;99.90;;;;;;5093814;28;20132;-34
2022/10/13 07:36:34;;;;;;;20.92;9.05;;;14.10;99.90;;;;;;5093823;28;20642;-42
2022/10/13 07:39:02;;;;;;;22.63;10.43;;;14.10;99.90;;;;;;5094081;28;20106;-37
2022/10/13 07:41:28;;;;;;;19.13;9.75;;;14.10;99.90;;;;;;5092018;28;20558;-38
2022/10/13 07:43:56;;;;;;;17.75;10.30;;;14.10;99.90;;;;;;5055175;28;20123;-35
2022/10/13 07:46:23;;;;;;;21.98;9.90;;;14.20;99.90;;;;;;5073510;28;20366;-39
2022/10/13 07:48:48;;;;;;;20.88;10.40;;;14.20;99.90;;;;;;5073436;28;20472;-39
2022/10/13 07:51:14;;;;;;;20.50;11.20;;;14.20;99.90;;;;;;5073381;28;20021;-45
2022/10/13 07:53:41;;;;;;;19.15;9.82;;;14.30;99.90;;;;;;5073363;28;20094;-37
2022/10/13 07:56:10;;;;;;;23.27;11.03;;;14.30;99.90;;;;;;5073233;28;20033;-41
2022/10/13 07:58:37;;;;;;;20.77;9.23;;;14.30;99.90;;;;;;5084704;28;20028;-40
2022/10/13 08:01:03;;;;;;;20.90;10.45;;;14.30;99.90;;;;;;5093548;28;20503;-39
2022/10/13 08:03:29;;;;;;;21.90;10.65;;;14.40;99.90;;;;;;5086345;28;20507;-36
2022/10/13 08:05:58;;;;;;;22.80;10.13;;;14.40;99.90;;;;;;5085459;28;20052;-37
2022/10/13 08:08:23;;;;;;;17.25;9.68;;;14.50;99.90;;;;;;5085451;28;20118;-39
2022/10/13 08:10:49;;;;;;;22.73;10.00;;;14.50;99.90;;;;;;5077718;28;20107;-37
2022/10/13 08:13:15;;;;;;;17.70;9.38;;;14.50;99.90;;;;;;5073076;28;20043;-33
2022/10/13 08:15:42;;;;;;;17.30;8.90;;;14.60;99.90;;;;;;5085203;28;20024;-35
2022/10/13 08:18:09;;;;;;;23.70;10.05;;;14.60;99.90;;;;;;5075048;28;20024;-37
2022/10/13 08:20:42;;;;;;;24.58;10.85;;;14.60;99.90;;;;;;5092444;28;20111;-36
2022/10/13 08:23:08;;;;;;;22.90;9.90;;;14.60;99.90;;;;;;5074718;28;20040;-37
2022/10/13 08:25:38;;;;;;;20.80;9.23;;;14.60;99.90;;;;;;5073522;28;20445;-34
2022/10/13 08:28:05;;;;;;;18.48;9.38;;;14.70;99.90;;;;;;5085250;28;20549;-39
2022/10/13 08:30:31;;;;;;;21.40;10.45;;;14.80;99.90;;;;;;5080326;28;20028;-40
2022/10/13 08:32:56;;;;;;;13.38;8.23;;;14.80;99.90;;;;;;5090257;28;20527;-39
2022/10/13 08:35:22;;;;;;;15.15;9.15;;;14.80;99.90;;;;;;5085666;28;20063;-41
2022/10/13 08:37:48;;;;;;;15.98;9.60;;;14.90;99.90;;;;;;5083165;28;20059;-39
2022/10/13 08:40:18;;;;;;;20.73;9.35;;;14.90;99.90;;;;;;5085226;28;20031;-38
2022/10/13 08:42:45;;;;;;;14.07;8.98;;;15.00;99.90;;;;;;5081784;28;20521;-42
2022/10/13 08:45:20;;;;;;;21.40;9.63;;;15.00;99.90;;;;;;5068890;28;20447;-43
2022/10/13 08:48:12;;;;;;;15.48;8.60;;;15.10;99.90;;;;;;5073286;28;20048;-41
2022/10/13 08:50:41;;;;;;;21.48;9.20;;;15.00;99.90;;;;;;5068841;28;20048;-47
2022/10/13 08:53:27;;;;;;;17.20;8.85;;;15.10;99.90;;;;;;5080023;28;20107;-57
2022/10/13 08:56:15;;;;;;;14.70;8.30;;;15.10;99.90;;;;;;5087228;28;20469;-40
2022/10/13 08:58:42;;;;;;;16.65;8.68;;;15.10;99.90;;;;;;5082511;28;20500;-37
2022/10/13 09:01:08;;;;;;;17.88;9.48;;;15.10;99.90;;;;;;5073216;28;20033;-38
2022/10/13 09:03:55;;;;;;;16.52;9.57;;;15.10;99.90;;;;;;5078712;28;20103;-39
2022/10/13 09:06:30;;;;;;;;;;;15.10;99.90;;;;;;5090672;28;20097;-40
2022/10/13 09:09:03;;;;;;;16.98;9.48;;;15.10;99.90;;;;;;5092271;28;19927;-47
2022/10/13 09:11:35;;;;;;;21.30;8.57;;;15.10;99.90;;;;;;5087222;28;20482;-44
2022/10/13 09:14:04;;;;;;;14.93;9.35;;;15.00;99.90;;;;;;5075595;28;20039;-42
2022/10/13 09:16:38;;;;;;;14.90;9.82;;;15.10;99.90;;;;;;5072723;28;20492;-39
2022/10/13 09:19:32;;;;;;;16.80;9.52;;;15.10;99.90;;;;;;5090174;28;20032;-43
2022/10/13 09:22:22;;;;;;;18.23;9.65;;;15.10;99.90;;;;;;5079988;28;20032;-38
2022/10/13 09:25:06;;;;;;;16.83;9.27;;;15.10;99.90;;;;;;5091493;28;20024;-38
2022/10/13 09:27:45;;;;;;;20.85;9.80;;;15.10;99.90;;;;;;5072874;28;20071;-40
2022/10/13 09:30:33;;;;;;;12.43;7.95;;;15.10;99.90;;;;;;5072462;28;20041;-36
2022/10/13 09:33:08;;;;;;;14.23;9.52;;;15.10;99.90;;;;;;5045520;28;20036;-43
2022/10/13 09:35:38;;;;;;;25.02;9.82;;;15.20;99.90;;;;;;5076002;28;20094;-39
2022/10/13 09:38:08;;;;;;;19.98;8.80;;;15.20;99.90;;;;;;5084474;28;20560;-40
2022/10/13 09:40:34;;;;;;;16.70;9.55;;;15.30;99.90;;;;;;5096050;28;20024;-37
2022/10/13 09:43:03;;;;;;;16.33;10.00;;;15.40;99.90;;;;;;5075999;28;20407;-32
2022/10/13 09:45:29;;;;;;;16.48;8.80;;;15.50;99.90;;;;;;5086328;28;20020;-42
2022/10/13 09:48:04;;;;;;;19.52;9.73;;;15.70;99.90;;;;;;5086101;28;20036;-36
2022/10/13 09:50:33;;;;;;;11.15;7.55;;;15.80;99.90;;;;;;5092376;28;20028;-42
2022/10/13 09:53:16;;;;;;;17.33;9.07;;;15.90;99.90;;;;;;5082002;28;20033;-35
2022/10/13 09:55:45;;;;;;;17.95;8.55;;;16.00;99.90;;;;;;5081218;28;20078;-39
2022/10/13 09:58:28;;;;;;;17.27;8.68;;;16.00;99.90;;;;;;5091770;28;20480;-40
2022/10/13 10:00:56;;;;;;;18.23;8.45;;;15.90;99.90;;;;;;5075483;28;20036;-45
2022/10/13 10:03:26;;;;;;;;;;;16.00;99.90;;;;;;5084952;28;20024;-43
2022/10/13 10:05:55;;;;;;;14.45;7.25;;;16.00;99.90;;;;;;5091483;28;19948;-44
2022/10/13 10:08:39;;;;;;;14.65;7.35;;;16.00;99.90;;;;;;5094957;28;20020;-48
2022/10/13 10:11:12;;;;;;;12.73;8.02;;;16.00;99.90;;;;;;5094189;28;20036;-44
2022/10/13 10:13:37;;;;;;;15.63;8.65;;;16.00;99.90;;;;;;5095108;28;20020;-42
2022/10/13 10:16:30;;;;;;;13.35;7.72;;;16.00;99.90;;;;;;5095468;28;20035;-34
2022/10/13 10:19:06;;;;;;;15.50;6.47;;;16.00;99.90;;;;;;5095303;28;20067;-37
2022/10/13 10:22:04;;;;;;;17.08;6.93;;;16.10;99.90;;;;;;5095460;28;20357;-42
2022/10/13 10:24:30;;;;;;;12.45;6.57;;;16.20;99.90;;;;;;5095167;28;20024;-41
2022/10/13 10:27:00;;;;;;;15.20;7.30;;;16.20;99.90;;;;;;5095279;28;20024;-33
2022/10/13 10:30:00;;;;;;;16.52;6.75;;;16.30;99.90;;;;;;5095303;28;20028;-43
2022/10/13 10:32:27;;;;;;;12.23;5.72;;;16.50;99.90;;;;;;5041542;28;20485;-44
2022/10/13 10:35:25;;;;;;;15.15;6.07;;;16.70;99.90;;;;;;5095483;28;20551;-46
2022/10/13 10:38:12;;;;;;;12.23;6.18;;;16.90;99.90;;;;;;5056393;28;20056;-47
2022/10/13 10:41:11;;;;;;;11.20;6.30;;;17.00;99.90;;;;;;5095050;28;20035;-46
2022/10/13 10:43:51;;;;;;;20.23;6.63;;;17.00;99.90;;;;;;5094342;28;20047;-51
2022/10/13 10:46:23;;;;;;;11.40;6.25;;;17.00;99.90;;;;;;5095178;28;20016;-43
2022/10/13 10:48:57;;;;;;;8.95;5.95;;;16.90;99.90;;;;;;5094737;28;20058;-46
2022/10/13 10:51:34;;;;;;;13.50;6.95;;;16.80;99.90;;;;;;5095027;28;20497;-43
2022/10/13 10:54:05;;;;;;;17.40;6.57;;;16.70;99.90;;;;;;5094938;28;20016;-45
2022/10/13 10:56:38;;;;;;;18.27;6.85;;;16.70;99.90;;;;;;5094981;28;20106;-44
2022/10/13 10:59:26;;;;;;;15.02;6.97;;;16.70;99.90;;;;;;5094552;28;20051;-43
2022/10/13 11:02:06;;;;;;;14.02;6.72;;;16.60;99.90;;;;;;5081327;28;20059;-43
2022/10/13 11:04:44;;;;;;;14.77;6.07;;;16.70;99.90;;;;;;5094148;28;20017;-48
2022/10/13 11:07:22;;;;;;;10.70;7.55;;;16.70;99.90;;;;;;5083547;28;20078;-48
2022/10/13 11:09:47;;;;;;;12.77;6.78;;;16.70;99.90;;;;;;5074239;28;20033;-45
2022/10/13 11:12:19;;;;;;;20.80;7.72;;;16.70;99.90;;;;;;5074461;28;20029;-47
2022/10/13 11:14:53;;;;;;;20.15;7.13;;;16.70;99.90;;;;;;5074148;28;20089;-41
2022/10/13 11:17:37;;;;;;;15.63;6.53;;;16.80;99.90;;;;;;5074251;28;20024;-42
2022/10/13 11:20:18;;;;;;;19.10;6.95;;;16.80;99.90;;;;;;5074131;28;20482;-44
2022/10/13 11:23:19;;;;;;;16.15;7.95;;;16.90;99.90;;;;;;5086844;28;20093;-46
2022/10/13 11:28:40;;;;;;;16.92;7.72;;;16.80;99.90;;;;;;5094418;28;20051;-45
2022/10/13 11:31:06;;;;;;;16.70;7.18;;;16.80;99.90;;;;;;5094215;28;20479;-36
2022/10/13 11:33:38;;;;;;;19.77;8.40;;;16.80;99.90;;;;;;5094240;28;20028;-38
2022/10/13 11:36:29;;;;;;;24.45;8.02;;;16.70;99.90;;;;;;5093817;28;20028;-30
2022/10/13 11:39:19;;;;;;;23.40;8.00;;;16.80;99.90;;;;;;5074741;28;20071;-37
2022/10/13 11:42:18;;;;;;;17.30;8.50;;;16.70;99.90;;;;;;5084381;28;20480;-32
2022/10/13 11:44:55;;;;;;;18.48;8.23;;;16.80;99.90;;;;;;5084851;28;20376;-37
2022/10/13 11:47:45;;;;;;;20.42;8.38;;;16.70;99.90;;;;;;5093828;28;20118;-33
2022/10/13 11:50:38;;;;;;;17.70;8.32;;;16.60;99.90;;;;;;5093744;28;20484;-33
2022/10/13 11:53:13;;;;;;;21.75;9.18;;;16.70;99.90;;;;;;5093873;28;20116;-33
2022/10/13 11:55:51;;;;;;;18.67;7.50;;;16.70;99.90;;;;;;5092467;28;20396;-35
2022/10/13 11:58:17;;;;;;;17.38;7.80;;;16.60;99.90;;;;;;5090897;28;20016;-36
2022/10/13 12:00:50;;;;;;;21.67;8.88;;;16.60;99.90;;;;;;5073093;28;20029;-36
2022/10/13 12:03:31;;;;;;;19.35;8.30;;;16.60;99.90;;;;;;5073203;28;20492;-33
2022/10/13 12:06:06;;;;;;;18.10;8.15;;;16.60;99.90;;;;;;5092927;28;20449;-37
2022/10/13 12:08:34;;;;;;;17.60;8.50;;;16.70;99.90;;;;;;5093649;28;20016;-36
2022/10/13 12:11:03;;;;;;;18.63;7.57;;;16.70;99.90;;;;;;5093525;28;20020;-35
2022/10/13 12:13:31;;;;;;;22.88;8.73;;;16.70;99.90;;;;;;5093387;28;20418;-35
2022/10/13 12:16:04;;;;;;;16.95;7.85;;;16.70;99.90;;;;;;5074973;28;20032;-48
2022/10/13 12:18:33;;;;;;;19.77;7.78;;;16.60;99.90;;;;;;5073145;28;20434;-42
2022/10/13 12:21:20;;;;;;;20.70;8.98;;;16.50;99.90;;;;;;5073154;28;20488;-42
2022/10/13 12:23:47;;;;;;;18.30;7.57;;;16.50;99.90;;;;;;5072989;28;20025;-43
2022/10/13 12:26:35;;;;;;;23.45;8.75;;;16.40;99.90;;;;;;5072954;28;20469;-40
2022/10/13 12:29:20;;;;;;;16.77;8.85;;;16.40;99.90;;;;;;5073286;28;20028;-40
2022/10/13 12:31:48;;;;;;;17.55;7.53;;;16.40;99.90;;;;;;5072960;28;20028;-41
2022/10/13 12:34:23;;;;;;;22.42;7.00;;;16.40;99.90;;;;;;5072928;28;20107;-69
2022/10/13 12:37:23;;;;;;;19.27;7.55;;;16.50;99.90;;;;;;5072778;28;20076;-46
2022/10/13 12:39:49;;;;;;;13.85;7.03;;;16.40;99.90;;;;;;5046556;28;20033;-45
2022/10/13 12:42:15;;;;;;;15.50;7.18;;;16.40;99.90;;;;;;5073170;28;20028;-45
2022/10/13 12:44:41;;;;;;;18.58;7.70;;;16.40;99.90;;;;;;5072726;28;20023;-42
2022/10/13 12:47:45;;;;;;;15.60;6.97;;;16.30;99.90;;;;;;5080322;28;20097;-51
2022/10/13 12:50:37;;;;;;;17.58;7.13;;;16.30;99.90;;;;;;5092546;28;20380;-42
2022/10/13 12:53:10;;;;;;;22.23;7.70;;;16.30;99.90;;;;;;5088341;28;20496;-45
2022/10/13 12:55:49;;;;;;;16.88;7.22;;;16.30;99.90;;;;;;5092421;28;20024;-33
2022/10/13 12:58:21;;;;;;;14.05;7.32;;;16.20;99.90;;;;;;5092652;28;20039;-37
2022/10/13 13:00:55;;;;;;;14.38;7.07;;;16.20;99.90;;;;;;5092572;28;20595;-35